sensor_id;sensor_type;location;lat;lon;timestamp;P1;durP1;ratioP1;P2;durP2;ratioP2
42176;SDS011;28126;51.060;19.460;2022-08-19T00:00:24;15.28;;;13.58;;
42176;SDS011;28126;51.060;19.460;2022-08-19T00:03:26;14.73;;;12.28;;
42176;SDS011;28126;51.060;19.460;2022-08-19T00:06:28;15.20;;;12.47;;
42176;SDS011;28126;51.060;19.460;2022-08-19T00:09:31;17.45;;;13.35;;
42176;SDS011;28126;51.060;19.460;2022-08-19T00:12:33;14.55;;;13.03;;
42176;SDS011;28126;51.060;19.460;2022-08-19T00:15:36;14.40;;;13.00;;
42176;SDS011;28126;51.060;19.460;2022-08-19T00:18:38;14.80;;;13.30;;
42176;SDS011;28126;51.060;19.460;2022-08-19T00:21:39;14.20;;;12.70;;
42176;SDS011;28126;51.060;19.460;2022-08-19T00:24:42;15.63;;;13.83;;
42176;SDS011;28126;51.060;19.460;2022-08-19T00:27:44;16.87;;;13.72;;
42176;SDS011;28126;51.060;19.460;2022-08-19T00:30:45;15.38;;;13.80;;
42176;SDS011;28126;51.060;19.460;2022-08-19T00:33:48;14.00;;;12.58;;
42176;SDS011;28126;51.060;19.460;2022-08-19T00:36:53;16.65;;;13.65;;
42176;SDS011;28126;51.060;19.460;2022-08-19T00:39:55;14.35;;;12.68;;
42176;SDS011;28126;51.060;19.460;2022-08-19T00:42:57;14.70;;;13.22;;
42176;SDS011;28126;51.060;19.460;2022-08-19T00:45:58;15.90;;;14.18;;
42176;SDS011;28126;51.060;19.460;2022-08-19T00:49:00;15.25;;;13.40;;
42176;SDS011;28126;51.060;19.460;2022-08-19T00:52:12;14.27;;;12.73;;
42176;SDS011;28126;51.060;19.460;2022-08-19T00:55:22;14.15;;;12.75;;
42176;SDS011;28126;51.060;19.460;2022-08-19T00:58:24;16.83;;;12.33;;
42176;SDS011;28126;51.060;19.460;2022-08-19T01:01:30;21.50;;;13.80;;
42176;SDS011;28126;51.060;19.460;2022-08-19T01:04:32;18.67;;;13.43;;
42176;SDS011;28126;51.060;19.460;2022-08-19T01:07:34;15.05;;;13.43;;
42176;SDS011;28126;51.060;19.460;2022-08-19T01:10:43;14.73;;;13.25;;
42176;SDS011;28126;51.060;19.460;2022-08-19T01:13:47;14.68;;;13.28;;
42176;SDS011;28126;51.060;19.460;2022-08-19T01:16:51;14.25;;;12.73;;
42176;SDS011;28126;51.060;19.460;2022-08-19T01:19:56;13.93;;;12.47;;
42176;SDS011;28126;51.060;19.460;2022-08-19T01:22:58;15.23;;;13.03;;
42176;SDS011;28126;51.060;19.460;2022-08-19T01:26:00;15.53;;;12.78;;
42176;SDS011;28126;51.060;19.460;2022-08-19T01:29:01;18.20;;;13.48;;
42176;SDS011;28126;51.060;19.460;2022-08-19T01:32:04;14.90;;;13.30;;
42176;SDS011;28126;51.060;19.460;2022-08-19T01:35:08;14.13;;;12.73;;
42176;SDS011;28126;51.060;19.460;2022-08-19T01:38:20;17.77;;;14.10;;
42176;SDS011;28126;51.060;19.460;2022-08-19T01:41:27;14.55;;;13.15;;
42176;SDS011;28126;51.060;19.460;2022-08-19T01:44:29;17.65;;;13.43;;
42176;SDS011;28126;51.060;19.460;2022-08-19T01:47:31;16.67;;;13.15;;
42176;SDS011;28126;51.060;19.460;2022-08-19T01:50:34;14.50;;;13.10;;
42176;SDS011;28126;51.060;19.460;2022-08-19T01:53:37;17.12;;;14.35;;
42176;SDS011;28126;51.060;19.460;2022-08-19T01:56:40;14.90;;;13.35;;
42176;SDS011;28126;51.060;19.460;2022-08-19T01:59:42;16.02;;;14.43;;
42176;SDS011;28126;51.060;19.460;2022-08-19T02:02:46;16.05;;;13.60;;
42176;SDS011;28126;51.060;19.460;2022-08-19T02:05:53;15.88;;;13.78;;
42176;SDS011;28126;51.060;19.460;2022-08-19T02:08:57;18.10;;;14.18;;
42176;SDS011;28126;51.060;19.460;2022-08-19T02:11:58;15.20;;;13.60;;
42176;SDS011;28126;51.060;19.460;2022-08-19T02:15:01;17.75;;;14.45;;
42176;SDS011;28126;51.060;19.460;2022-08-19T02:18:04;15.45;;;13.62;;
42176;SDS011;28126;51.060;19.460;2022-08-19T02:21:08;15.18;;;13.60;;
42176;SDS011;28126;51.060;19.460;2022-08-19T02:24:11;15.30;;;13.72;;
42176;SDS011;28126;51.060;19.460;2022-08-19T02:27:13;15.05;;;13.50;;
42176;SDS011;28126;51.060;19.460;2022-08-19T02:30:16;16.48;;;14.60;;
42176;SDS011;28126;51.060;19.460;2022-08-19T02:33:19;17.40;;;14.50;;
42176;SDS011;28126;51.060;19.460;2022-08-19T02:36:21;14.87;;;12.65;;
42176;SDS011;28126;51.060;19.460;2022-08-19T02:39:24;15.00;;;13.60;;
42176;SDS011;28126;51.060;19.460;2022-08-19T02:42:27;16.32;;;14.58;;
42176;SDS011;28126;51.060;19.460;2022-08-19T02:45:32;15.88;;;14.00;;
42176;SDS011;28126;51.060;19.460;2022-08-19T02:48:36;15.10;;;13.50;;
42176;SDS011;28126;51.060;19.460;2022-08-19T02:51:39;15.32;;;13.68;;
42176;SDS011;28126;51.060;19.460;2022-08-19T02:54:44;14.70;;;13.35;;
42176;SDS011;28126;51.060;19.460;2022-08-19T02:57:46;15.55;;;14.03;;
42176;SDS011;28126;51.060;19.460;2022-08-19T03:00:50;15.53;;;13.90;;
42176;SDS011;28126;51.060;19.460;2022-08-19T03:03:55;14.60;;;12.88;;
42176;SDS011;28126;51.060;19.460;2022-08-19T03:06:57;14.35;;;12.98;;
42176;SDS011;28126;51.060;19.460;2022-08-19T03:09:59;15.88;;;14.28;;
42176;SDS011;28126;51.060;19.460;2022-08-19T03:13:00;15.35;;;13.72;;
42176;SDS011;28126;51.060;19.460;2022-08-19T03:16:03;14.55;;;13.20;;
42176;SDS011;28126;51.060;19.460;2022-08-19T03:19:06;14.85;;;13.25;;
42176;SDS011;28126;51.060;19.460;2022-08-19T03:22:08;20.45;;;12.98;;
42176;SDS011;28126;51.060;19.460;2022-08-19T03:25:10;16.57;;;13.85;;
42176;SDS011;28126;51.060;19.460;2022-08-19T03:28:13;14.75;;;12.98;;
42176;SDS011;28126;51.060;19.460;2022-08-19T03:31:17;15.25;;;13.78;;
42176;SDS011;28126;51.060;19.460;2022-08-19T03:34:25;14.70;;;13.28;;
42176;SDS011;28126;51.060;19.460;2022-08-19T03:37:30;13.88;;;12.28;;
42176;SDS011;28126;51.060;19.460;2022-08-19T03:40:32;15.50;;;13.30;;
42176;SDS011;28126;51.060;19.460;2022-08-19T03:43:39;17.92;;;13.45;;
42176;SDS011;28126;51.060;19.460;2022-08-19T03:46:41;16.93;;;14.23;;
42176;SDS011;28126;51.060;19.460;2022-08-19T03:49:43;17.05;;;13.72;;
42176;SDS011;28126;51.060;19.460;2022-08-19T03:52:49;14.78;;;13.45;;
42176;SDS011;28126;51.060;19.460;2022-08-19T03:55:52;16.77;;;14.25;;
42176;SDS011;28126;51.060;19.460;2022-08-19T03:58:55;15.35;;;13.50;;
42176;SDS011;28126;51.060;19.460;2022-08-19T04:02:00;16.42;;;12.45;;
42176;SDS011;28126;51.060;19.460;2022-08-19T04:05:05;14.35;;;12.95;;
42176;SDS011;28126;51.060;19.460;2022-08-19T04:08:08;15.40;;;13.75;;
42176;SDS011;28126;51.060;19.460;2022-08-19T04:11:11;19.52;;;14.43;;
42176;SDS011;28126;51.060;19.460;2022-08-19T04:14:17;15.10;;;13.50;;
42176;SDS011;28126;51.060;19.460;2022-08-19T04:17:21;16.82;;;12.98;;
42176;SDS011;28126;51.060;19.460;2022-08-19T04:20:23;14.43;;;12.98;;
42176;SDS011;28126;51.060;19.460;2022-08-19T04:23:24;14.68;;;13.10;;
42176;SDS011;28126;51.060;19.460;2022-08-19T04:26:30;14.53;;;13.13;;
42176;SDS011;28126;51.060;19.460;2022-08-19T04:29:34;14.50;;;12.88;;
42176;SDS011;28126;51.060;19.460;2022-08-19T04:32:36;14.73;;;13.32;;
42176;SDS011;28126;51.060;19.460;2022-08-19T04:35:38;14.58;;;13.08;;
42176;SDS011;28126;51.060;19.460;2022-08-19T04:38:42;14.80;;;11.97;;
42176;SDS011;28126;51.060;19.460;2022-08-19T04:41:44;14.18;;;12.73;;
42176;SDS011;28126;51.060;19.460;2022-08-19T04:45:07;16.00;;;13.00;;
42176;SDS011;28126;51.060;19.460;2022-08-19T04:48:12;18.87;;;14.50;;
42176;SDS011;28126;51.060;19.460;2022-08-19T04:51:14;16.67;;;14.55;;
42176;SDS011;28126;51.060;19.460;2022-08-19T04:54:17;15.53;;;14.03;;
42176;SDS011;28126;51.060;19.460;2022-08-19T04:57:21;15.95;;;13.40;;
42176;SDS011;28126;51.060;19.460;2022-08-19T05:00:23;15.95;;;13.43;;
42176;SDS011;28126;51.060;19.460;2022-08-19T05:03:25;15.90;;;13.78;;
42176;SDS011;28126;51.060;19.460;2022-08-19T05:06:28;14.58;;;13.00;;
42176;SDS011;28126;51.060;19.460;2022-08-19T05:09:29;14.25;;;12.85;;
42176;SDS011;28126;51.060;19.460;2022-08-19T05:12:32;14.33;;;12.93;;
42176;SDS011;28126;51.060;19.460;2022-08-19T05:15:34;13.70;;;11.97;;
42176;SDS011;28126;51.060;19.460;2022-08-19T05:18:37;14.23;;;12.82;;
42176;SDS011;28126;51.060;19.460;2022-08-19T05:21:59;14.70;;;13.05;;
42176;SDS011;28126;51.060;19.460;2022-08-19T05:25:20;14.87;;;13.43;;
42176;SDS011;28126;51.060;19.460;2022-08-19T05:28:23;18.95;;;12.55;;
42176;SDS011;28126;51.060;19.460;2022-08-19T05:31:25;15.88;;;13.15;;
42176;SDS011;28126;51.060;19.460;2022-08-19T05:34:26;14.00;;;12.60;;
42176;SDS011;28126;51.060;19.460;2022-08-19T05:37:28;14.13;;;12.65;;
42176;SDS011;28126;51.060;19.460;2022-08-19T05:40:29;12.73;;;11.35;;
42176;SDS011;28126;51.060;19.460;2022-08-19T05:43:31;14.10;;;12.70;;
42176;SDS011;28126;51.060;19.460;2022-08-19T05:46:33;15.40;;;12.45;;
42176;SDS011;28126;51.060;19.460;2022-08-19T05:49:35;15.00;;;11.90;;
42176;SDS011;28126;51.060;19.460;2022-08-19T05:52:37;16.67;;;13.08;;
42176;SDS011;28126;51.060;19.460;2022-08-19T05:55:40;15.15;;;12.43;;
42176;SDS011;28126;51.060;19.460;2022-08-19T05:58:42;14.15;;;12.73;;
42176;SDS011;28126;51.060;19.460;2022-08-19T06:01:46;14.03;;;12.40;;
42176;SDS011;28126;51.060;19.460;2022-08-19T06:04:50;14.55;;;12.45;;
42176;SDS011;28126;51.060;19.460;2022-08-19T06:07:51;14.63;;;12.60;;
42176;SDS011;28126;51.060;19.460;2022-08-19T06:10:54;17.55;;;13.85;;
42176;SDS011;28126;51.060;19.460;2022-08-19T06:13:56;13.60;;;12.40;;
42176;SDS011;28126;51.060;19.460;2022-08-19T06:16:59;14.70;;;13.13;;
42176;SDS011;28126;51.060;19.460;2022-08-19T06:20:06;14.38;;;12.68;;
42176;SDS011;28126;51.060;19.460;2022-08-19T06:23:13;17.02;;;13.38;;
42176;SDS011;28126;51.060;19.460;2022-08-19T06:26:15;15.75;;;14.15;;
42176;SDS011;28126;51.060;19.460;2022-08-19T06:29:20;17.45;;;14.05;;
42176;SDS011;28126;51.060;19.460;2022-08-19T06:32:24;15.65;;;14.13;;
42176;SDS011;28126;51.060;19.460;2022-08-19T06:35:26;15.98;;;13.40;;
42176;SDS011;28126;51.060;19.460;2022-08-19T06:38:29;16.87;;;12.25;;
42176;SDS011;28126;51.060;19.460;2022-08-19T06:41:34;13.10;;;10.93;;
42176;SDS011;28126;51.060;19.460;2022-08-19T06:44:40;14.68;;;12.30;;
42176;SDS011;28126;51.060;19.460;2022-08-19T06:47:44;13.85;;;11.95;;
42176;SDS011;28126;51.060;19.460;2022-08-19T06:50:47;16.15;;;13.28;;
42176;SDS011;28126;51.060;19.460;2022-08-19T06:53:51;14.15;;;12.65;;
42176;SDS011;28126;51.060;19.460;2022-08-19T06:56:57;15.68;;;14.07;;
42176;SDS011;28126;51.060;19.460;2022-08-19T07:00:03;11.80;;;10.32;;
42176;SDS011;28126;51.060;19.460;2022-08-19T07:03:07;16.35;;;13.48;;
42176;SDS011;28126;51.060;19.460;2022-08-19T07:06:12;14.53;;;12.95;;
42176;SDS011;28126;51.060;19.460;2022-08-19T07:09:18;15.35;;;13.85;;
42176;SDS011;28126;51.060;19.460;2022-08-19T07:12:19;15.45;;;13.22;;
42176;SDS011;28126;51.060;19.460;2022-08-19T07:15:21;15.20;;;13.65;;
42176;SDS011;28126;51.060;19.460;2022-08-19T07:18:24;16.97;;;13.22;;
42176;SDS011;28126;51.060;19.460;2022-08-19T07:21:26;14.70;;;13.18;;
42176;SDS011;28126;51.060;19.460;2022-08-19T07:24:30;13.53;;;12.33;;
42176;SDS011;28126;51.060;19.460;2022-08-19T07:27:32;16.87;;;14.55;;
42176;SDS011;28126;51.060;19.460;2022-08-19T07:30:38;14.87;;;13.08;;
42176;SDS011;28126;51.060;19.460;2022-08-19T07:33:41;17.02;;;13.80;;
42176;SDS011;28126;51.060;19.460;2022-08-19T07:36:43;14.60;;;13.13;;
42176;SDS011;28126;51.060;19.460;2022-08-19T07:39:48;15.15;;;13.20;;
42176;SDS011;28126;51.060;19.460;2022-08-19T07:42:50;13.90;;;12.07;;
42176;SDS011;28126;51.060;19.460;2022-08-19T07:45:52;16.65;;;13.35;;
42176;SDS011;28126;51.060;19.460;2022-08-19T07:48:58;15.03;;;12.93;;
42176;SDS011;28126;51.060;19.460;2022-08-19T07:52:03;14.20;;;12.82;;
42176;SDS011;28126;51.060;19.460;2022-08-19T07:55:09;18.82;;;14.13;;
42176;SDS011;28126;51.060;19.460;2022-08-19T07:58:12;14.68;;;13.10;;
42176;SDS011;28126;51.060;19.460;2022-08-19T08:01:23;14.95;;;13.20;;
42176;SDS011;28126;51.060;19.460;2022-08-19T08:04:24;14.43;;;12.93;;
42176;SDS011;28126;51.060;19.460;2022-08-19T08:07:44;18.75;;;14.15;;
42176;SDS011;28126;51.060;19.460;2022-08-19T08:11:05;16.27;;;13.85;;
42176;SDS011;28126;51.060;19.460;2022-08-19T08:14:06;14.75;;;13.25;;
42176;SDS011;28126;51.060;19.460;2022-08-19T08:17:10;15.18;;;13.60;;
42176;SDS011;28126;51.060;19.460;2022-08-19T08:20:13;15.48;;;13.15;;
42176;SDS011;28126;51.060;19.460;2022-08-19T08:23:15;14.18;;;12.68;;
42176;SDS011;28126;51.060;19.460;2022-08-19T08:26:23;16.05;;;14.23;;
42176;SDS011;28126;51.060;19.460;2022-08-19T08:29:30;13.85;;;12.40;;
42176;SDS011;28126;51.060;19.460;2022-08-19T08:32:31;15.55;;;12.73;;
42176;SDS011;28126;51.060;19.460;2022-08-19T08:35:33;13.95;;;12.37;;
42176;SDS011;28126;51.060;19.460;2022-08-19T08:38:36;16.50;;;13.32;;
42176;SDS011;28126;51.060;19.460;2022-08-19T08:45:02;15.78;;;13.80;;
42176;SDS011;28126;51.060;19.460;2022-08-19T08:48:16;16.93;;;14.30;;
42176;SDS011;28126;51.060;19.460;2022-08-19T08:51:24;15.32;;;13.83;;
42176;SDS011;28126;51.060;19.460;2022-08-19T08:54:37;14.95;;;13.45;;
42176;SDS011;28126;51.060;19.460;2022-08-19T09:00:55;16.25;;;12.75;;
42176;SDS011;28126;51.060;19.460;2022-08-19T09:03:58;15.08;;;13.55;;
42176;SDS011;28126;51.060;19.460;2022-08-19T09:10:52;19.67;;;13.75;;
42176;SDS011;28126;51.060;19.460;2022-08-19T09:14:08;14.18;;;12.68;;
42176;SDS011;28126;51.060;19.460;2022-08-19T09:17:23;15.90;;;13.75;;
42176;SDS011;28126;51.060;19.460;2022-08-19T09:20:34;15.03;;;13.20;;
42176;SDS011;28126;51.060;19.460;2022-08-19T09:23:36;15.23;;;13.68;;
42176;SDS011;28126;51.060;19.460;2022-08-19T09:26:39;18.92;;;13.90;;
42176;SDS011;28126;51.060;19.460;2022-08-19T09:29:40;14.80;;;13.30;;
42176;SDS011;28126;51.060;19.460;2022-08-19T09:32:42;14.53;;;13.00;;
42176;SDS011;28126;51.060;19.460;2022-08-19T09:35:45;14.00;;;12.50;;
42176;SDS011;28126;51.060;19.460;2022-08-19T09:38:47;13.88;;;12.47;;
42176;SDS011;28126;51.060;19.460;2022-08-19T09:41:49;13.53;;;12.23;;
42176;SDS011;28126;51.060;19.460;2022-08-19T09:44:51;15.43;;;13.38;;
42176;SDS011;28126;51.060;19.460;2022-08-19T09:47:52;14.38;;;12.68;;
42176;SDS011;28126;51.060;19.460;2022-08-19T09:50:55;14.43;;;12.37;;
42176;SDS011;28126;51.060;19.460;2022-08-19T09:53:59;13.13;;;11.93;;
42176;SDS011;28126;51.060;19.460;2022-08-19T09:57:03;13.22;;;11.45;;
42176;SDS011;28126;51.060;19.460;2022-08-19T10:00:05;12.90;;;11.63;;
42176;SDS011;28126;51.060;19.460;2022-08-19T10:03:09;14.30;;;12.73;;
42176;SDS011;28126;51.060;19.460;2022-08-19T10:06:12;15.83;;;12.88;;
42176;SDS011;28126;51.060;19.460;2022-08-19T10:09:14;16.02;;;12.03;;
42176;SDS011;28126;51.060;19.460;2022-08-19T10:12:17;14.85;;;11.88;;
42176;SDS011;28126;51.060;19.460;2022-08-19T10:15:19;14.63;;;12.40;;
42176;SDS011;28126;51.060;19.460;2022-08-19T10:18:22;14.50;;;12.65;;
42176;SDS011;28126;51.060;19.460;2022-08-19T10:21:27;14.45;;;12.98;;
42176;SDS011;28126;51.060;19.460;2022-08-19T10:24:34;15.60;;;12.15;;
42176;SDS011;28126;51.060;19.460;2022-08-19T10:27:36;16.87;;;12.60;;
42176;SDS011;28126;51.060;19.460;2022-08-19T10:30:39;13.55;;;12.28;;
42176;SDS011;28126;51.060;19.460;2022-08-19T10:33:42;13.55;;;12.18;;
42176;SDS011;28126;51.060;19.460;2022-08-19T10:36:44;13.65;;;11.20;;
42176;SDS011;28126;51.060;19.460;2022-08-19T10:39:46;15.35;;;12.10;;
42176;SDS011;28126;51.060;19.460;2022-08-19T10:42:48;15.03;;;12.10;;
42176;SDS011;28126;51.060;19.460;2022-08-19T10:45:54;13.15;;;11.35;;
42176;SDS011;28126;51.060;19.460;2022-08-19T10:49:00;12.98;;;11.68;;
42176;SDS011;28126;51.060;19.460;2022-08-19T10:52:03;13.88;;;12.23;;
42176;SDS011;28126;51.060;19.460;2022-08-19T10:55:23;14.05;;;11.88;;
42176;SDS011;28126;51.060;19.460;2022-08-19T10:58:43;18.07;;;12.47;;
42176;SDS011;28126;51.060;19.460;2022-08-19T11:01:45;12.95;;;11.63;;
42176;SDS011;28126;51.060;19.460;2022-08-19T11:04:47;13.38;;;11.93;;
42176;SDS011;28126;51.060;19.460;2022-08-19T11:07:50;14.63;;;11.60;;
42176;SDS011;28126;51.060;19.460;2022-08-19T11:10:53;11.97;;;10.78;;
42176;SDS011;28126;51.060;19.460;2022-08-19T11:13:57;17.50;;;12.05;;
42176;SDS011;28126;51.060;19.460;2022-08-19T11:17:00;16.42;;;10.10;;
42176;SDS011;28126;51.060;19.460;2022-08-19T11:20:03;13.30;;;9.85;;
42176;SDS011;28126;51.060;19.460;2022-08-19T11:23:06;15.78;;;10.35;;
42176;SDS011;28126;51.060;19.460;2022-08-19T11:26:07;12.03;;;10.70;;
42176;SDS011;28126;51.060;19.460;2022-08-19T11:29:09;15.70;;;10.53;;
42176;SDS011;28126;51.060;19.460;2022-08-19T11:32:13;14.20;;;10.63;;
42176;SDS011;28126;51.060;19.460;2022-08-19T11:35:16;15.18;;;10.48;;
42176;SDS011;28126;51.060;19.460;2022-08-19T11:38:19;14.20;;;10.58;;
42176;SDS011;28126;51.060;19.460;2022-08-19T11:41:21;18.20;;;10.58;;
42176;SDS011;28126;51.060;19.460;2022-08-19T11:44:25;13.55;;;10.68;;
42176;SDS011;28126;51.060;19.460;2022-08-19T11:47:27;14.47;;;10.78;;
42176;SDS011;28126;51.060;19.460;2022-08-19T11:50:28;12.55;;;10.38;;
42176;SDS011;28126;51.060;19.460;2022-08-19T11:53:30;14.18;;;11.03;;
42176;SDS011;28126;51.060;19.460;2022-08-19T11:56:31;12.73;;;10.70;;
42176;SDS011;28126;51.060;19.460;2022-08-19T11:59:33;11.03;;;9.93;;
42176;SDS011;28126;51.060;19.460;2022-08-19T12:02:35;12.58;;;10.65;;
42176;SDS011;28126;51.060;19.460;2022-08-19T12:05:37;14.75;;;11.38;;
42176;SDS011;28126;51.060;19.460;2022-08-19T12:08:40;16.45;;;11.48;;
42176;SDS011;28126;51.060;19.460;2022-08-19T12:11:43;12.60;;;10.95;;
42176;SDS011;28126;51.060;19.460;2022-08-19T12:14:46;16.97;;;11.63;;
42176;SDS011;28126;51.060;19.460;2022-08-19T12:17:47;14.98;;;11.50;;
42176;SDS011;28126;51.060;19.460;2022-08-19T12:20:49;13.65;;;10.98;;
42176;SDS011;28126;51.060;19.460;2022-08-19T12:23:53;16.48;;;11.48;;
42176;SDS011;28126;51.060;19.460;2022-08-19T12:26:55;14.15;;;11.00;;
42176;SDS011;28126;51.060;19.460;2022-08-19T12:29:57;13.65;;;10.80;;
42176;SDS011;28126;51.060;19.460;2022-08-19T12:33:00;12.37;;;11.08;;
42176;SDS011;28126;51.060;19.460;2022-08-19T12:36:03;15.85;;;11.10;;
42176;SDS011;28126;51.060;19.460;2022-08-19T12:39:08;14.30;;;11.15;;
42176;SDS011;28126;51.060;19.460;2022-08-19T12:42:10;15.28;;;11.85;;
42176;SDS011;28126;51.060;19.460;2022-08-19T12:45:13;15.70;;;11.75;;
42176;SDS011;28126;51.060;19.460;2022-08-19T12:48:15;16.45;;;11.73;;
42176;SDS011;28126;51.060;19.460;2022-08-19T12:51:17;13.48;;;10.78;;
42176;SDS011;28126;51.060;19.460;2022-08-19T12:54:22;13.35;;;9.90;;
42176;SDS011;28126;51.060;19.460;2022-08-19T12:57:25;14.55;;;9.50;;
42176;SDS011;28126;51.060;19.460;2022-08-19T13:00:29;17.92;;;9.63;;
42176;SDS011;28126;51.060;19.460;2022-08-19T13:03:33;16.55;;;9.75;;
42176;SDS011;28126;51.060;19.460;2022-08-19T13:06:34;15.28;;;9.60;;
42176;SDS011;28126;51.060;19.460;2022-08-19T13:09:36;13.65;;;9.48;;
42176;SDS011;28126;51.060;19.460;2022-08-19T13:12:38;14.70;;;8.85;;
42176;SDS011;28126;51.060;19.460;2022-08-19T13:15:41;12.58;;;9.55;;
42176;SDS011;28126;51.060;19.460;2022-08-19T13:18:45;16.82;;;10.00;;
42176;SDS011;28126;51.060;19.460;2022-08-19T13:21:51;11.90;;;9.33;;
42176;SDS011;28126;51.060;19.460;2022-08-19T13:24:56;15.40;;;10.25;;
42176;SDS011;28126;51.060;19.460;2022-08-19T13:27:57;13.93;;;9.40;;
42176;SDS011;28126;51.060;19.460;2022-08-19T13:31:00;18.95;;;9.88;;
42176;SDS011;28126;51.060;19.460;2022-08-19T13:34:26;15.72;;;10.45;;
42176;SDS011;28126;51.060;19.460;2022-08-19T13:37:30;18.62;;;10.05;;
42176;SDS011;28126;51.060;19.460;2022-08-19T13:40:44;15.50;;;10.13;;
42176;SDS011;28126;51.060;19.460;2022-08-19T13:43:47;13.50;;;9.70;;
42176;SDS011;28126;51.060;19.460;2022-08-19T13:46:49;14.68;;;9.43;;
42176;SDS011;28126;51.060;19.460;2022-08-19T13:49:53;15.03;;;9.55;;
42176;SDS011;28126;51.060;19.460;2022-08-19T13:52:55;13.50;;;9.85;;
42176;SDS011;28126;51.060;19.460;2022-08-19T13:55:57;11.28;;;9.88;;
42176;SDS011;28126;51.060;19.460;2022-08-19T13:58:59;14.95;;;9.75;;
42176;SDS011;28126;51.060;19.460;2022-08-19T14:02:00;15.65;;;9.40;;
42176;SDS011;28126;51.060;19.460;2022-08-19T14:05:02;12.93;;;8.75;;
42176;SDS011;28126;51.060;19.460;2022-08-19T14:08:04;20.82;;;9.73;;
42176;SDS011;28126;51.060;19.460;2022-08-19T14:11:07;15.85;;;9.63;;
42176;SDS011;28126;51.060;19.460;2022-08-19T14:14:10;14.45;;;9.25;;
42176;SDS011;28126;51.060;19.460;2022-08-19T14:17:11;14.28;;;9.48;;
42176;SDS011;28126;51.060;19.460;2022-08-19T14:20:13;16.97;;;9.18;;
42176;SDS011;28126;51.060;19.460;2022-08-19T14:23:16;12.93;;;8.48;;
42176;SDS011;28126;51.060;19.460;2022-08-19T14:26:18;12.28;;;8.80;;
42176;SDS011;28126;51.060;19.460;2022-08-19T14:29:20;15.70;;;9.23;;
42176;SDS011;28126;51.060;19.460;2022-08-19T14:32:22;12.93;;;9.30;;
42176;SDS011;28126;51.060;19.460;2022-08-19T14:35:23;10.72;;;8.50;;
42176;SDS011;28126;51.060;19.460;2022-08-19T14:38:27;13.75;;;9.98;;
42176;SDS011;28126;51.060;19.460;2022-08-19T14:41:30;14.63;;;9.10;;
42176;SDS011;28126;51.060;19.460;2022-08-19T14:44:33;11.33;;;9.00;;
42176;SDS011;28126;51.060;19.460;2022-08-19T14:47:34;12.15;;;9.60;;
42176;SDS011;28126;51.060;19.460;2022-08-19T14:50:36;12.50;;;9.28;;
42176;SDS011;28126;51.060;19.460;2022-08-19T14:53:38;16.17;;;8.73;;
42176;SDS011;28126;51.060;19.460;2022-08-19T14:56:40;17.50;;;9.85;;
42176;SDS011;28126;51.060;19.460;2022-08-19T14:59:43;10.85;;;8.83;;
42176;SDS011;28126;51.060;19.460;2022-08-19T15:02:45;13.93;;;8.48;;
42176;SDS011;28126;51.060;19.460;2022-08-19T15:05:46;12.10;;;9.70;;
42176;SDS011;28126;51.060;19.460;2022-08-19T15:08:49;14.23;;;9.73;;
42176;SDS011;28126;51.060;19.460;2022-08-19T15:11:52;17.92;;;10.55;;
42176;SDS011;28126;51.060;19.460;2022-08-19T15:14:54;13.03;;;9.53;;
42176;SDS011;28126;51.060;19.460;2022-08-19T15:17:56;14.00;;;9.90;;
42176;SDS011;28126;51.060;19.460;2022-08-19T15:21:00;14.47;;;9.68;;
42176;SDS011;28126;51.060;19.460;2022-08-19T15:24:02;15.10;;;10.28;;
42176;SDS011;28126;51.060;19.460;2022-08-19T15:27:05;12.93;;;10.35;;
42176;SDS011;28126;51.060;19.460;2022-08-19T15:30:07;17.15;;;9.80;;
42176;SDS011;28126;51.060;19.460;2022-08-19T15:33:11;13.95;;;10.03;;
42176;SDS011;28126;51.060;19.460;2022-08-19T15:36:15;13.80;;;9.60;;
42176;SDS011;28126;51.060;19.460;2022-08-19T15:39:16;10.65;;;9.15;;
42176;SDS011;28126;51.060;19.460;2022-08-19T15:42:19;14.15;;;9.78;;
42176;SDS011;28126;51.060;19.460;2022-08-19T15:45:20;13.05;;;9.50;;
42176;SDS011;28126;51.060;19.460;2022-08-19T15:48:22;15.00;;;9.73;;
42176;SDS011;28126;51.060;19.460;2022-08-19T15:51:24;14.13;;;9.38;;
42176;SDS011;28126;51.060;19.460;2022-08-19T15:54:30;15.98;;;9.78;;
42176;SDS011;28126;51.060;19.460;2022-08-19T15:57:32;12.30;;;9.75;;
42176;SDS011;28126;51.060;19.460;2022-08-19T16:00:52;17.95;;;11.05;;
42176;SDS011;28126;51.060;19.460;2022-08-19T16:04:12;12.25;;;9.65;;
42176;SDS011;28126;51.060;19.460;2022-08-19T16:07:33;12.05;;;9.45;;
42176;SDS011;28126;51.060;19.460;2022-08-19T16:10:35;13.22;;;9.55;;
42176;SDS011;28126;51.060;19.460;2022-08-19T16:13:39;11.68;;;9.73;;
42176;SDS011;28126;51.060;19.460;2022-08-19T16:16:41;11.55;;;9.23;;
42176;SDS011;28126;51.060;19.460;2022-08-19T16:19:45;11.20;;;9.20;;
42176;SDS011;28126;51.060;19.460;2022-08-19T16:22:46;12.37;;;9.63;;
42176;SDS011;28126;51.060;19.460;2022-08-19T16:25:48;13.13;;;9.05;;
42176;SDS011;28126;51.060;19.460;2022-08-19T16:28:50;13.00;;;9.33;;
42176;SDS011;28126;51.060;19.460;2022-08-19T16:31:51;13.22;;;9.35;;
42176;SDS011;28126;51.060;19.460;2022-08-19T16:34:54;12.90;;;8.83;;
42176;SDS011;28126;51.060;19.460;2022-08-19T16:37:55;15.08;;;9.30;;
42176;SDS011;28126;51.060;19.460;2022-08-19T16:40:56;16.12;;;9.60;;
42176;SDS011;28126;51.060;19.460;2022-08-19T16:44:00;14.13;;;9.30;;
42176;SDS011;28126;51.060;19.460;2022-08-19T16:47:01;15.72;;;9.28;;
42176;SDS011;28126;51.060;19.460;2022-08-19T16:50:03;15.25;;;9.33;;
42176;SDS011;28126;51.060;19.460;2022-08-19T16:53:07;13.35;;;7.55;;
42176;SDS011;28126;51.060;19.460;2022-08-19T16:56:09;11.18;;;7.87;;
42176;SDS011;28126;51.060;19.460;2022-08-19T16:59:11;11.97;;;8.80;;
42176;SDS011;28126;51.060;19.460;2022-08-19T17:02:13;15.35;;;8.70;;
42176;SDS011;28126;51.060;19.460;2022-08-19T17:05:15;15.35;;;9.83;;
42176;SDS011;28126;51.060;19.460;2022-08-19T17:08:17;12.28;;;9.55;;
42176;SDS011;28126;51.060;19.460;2022-08-19T17:11:23;15.10;;;9.78;;
42176;SDS011;28126;51.060;19.460;2022-08-19T17:14:26;14.20;;;9.60;;
42176;SDS011;28126;51.060;19.460;2022-08-19T17:17:28;12.13;;;8.88;;
42176;SDS011;28126;51.060;19.460;2022-08-19T17:20:31;13.28;;;9.90;;
42176;SDS011;28126;51.060;19.460;2022-08-19T17:23:33;13.62;;;9.48;;
42176;SDS011;28126;51.060;19.460;2022-08-19T17:26:37;13.93;;;9.80;;
42176;SDS011;28126;51.060;19.460;2022-08-19T17:29:38;14.28;;;10.38;;
42176;SDS011;28126;51.060;19.460;2022-08-19T17:32:41;13.15;;;9.90;;
42176;SDS011;28126;51.060;19.460;2022-08-19T17:35:43;11.97;;;9.28;;
42176;SDS011;28126;51.060;19.460;2022-08-19T17:38:45;14.15;;;9.63;;
42176;SDS011;28126;51.060;19.460;2022-08-19T17:41:46;11.48;;;9.68;;
42176;SDS011;28126;51.060;19.460;2022-08-19T17:44:47;16.50;;;10.80;;
42176;SDS011;28126;51.060;19.460;2022-08-19T17:47:49;13.03;;;10.30;;
42176;SDS011;28126;51.060;19.460;2022-08-19T17:50:51;14.70;;;10.38;;